createdAt,value
2022-08-05T12:08:10.499Z,101033.38
2022-08-05T12:10:43.301Z,101027.41
2022-08-05T12:13:28.355Z,101037.03
2022-08-05T12:16:14.484Z,101030.06
2022-08-05T12:18:49.114Z,101030.91
2022-08-05T12:21:47.099Z,101034.97
2022-08-05T12:24:21.685Z,101025.00
2022-08-05T12:26:55.223Z,101022.16
2022-08-05T12:29:27.689Z,101024.84
2022-08-05T12:32:01.712Z,101019.41
2022-08-05T12:34:37.043Z,101015.66
2022-08-05T12:37:17.343Z,101006.03
2022-08-05T12:39:53.972Z,101008.38
2022-08-05T12:42:29.137Z,101004.91
2022-08-05T12:45:09.735Z,101011.34
2022-08-05T12:48:01.043Z,100999.09
2022-08-05T12:50:32.123Z,100998.56
2022-08-05T12:53:02.980Z,100997.63
2022-08-05T12:55:33.242Z,100996.41
2022-08-05T12:58:50.631Z,101000.34
2022-08-05T13:02:02.133Z,100993.31
2022-08-05T13:03:48.881Z,100994.91
2022-08-05T13:06:21.881Z,100986.69
2022-08-05T13:08:52.931Z,100993.16
2022-08-05T13:12:01.553Z,100994.53
2022-08-05T13:14:35.897Z,100988.22
2022-08-05T13:17:20.677Z,100977.47
2022-08-05T13:20:10.163Z,100983.00
2022-08-05T13:22:52.967Z,100974.09
2022-08-05T13:25:52.486Z,100976.16
2022-08-05T13:28:14.299Z,100966.38
2022-08-05T13:30:44.587Z,100959.00
2022-08-05T13:34:24.219Z,100964.59
2022-08-05T13:36:09.634Z,100955.81
2022-08-05T13:38:42.770Z,100960.09
2022-08-05T13:41:13.731Z,100963.66
2022-08-05T13:43:54.474Z,100965.34
2022-08-05T13:49:16.586Z,100944.34
2022-08-05T13:51:47.226Z,100944.88
2022-08-05T13:54:20.956Z,100948.41
2022-08-05T13:56:55.072Z,100952.63
2022-08-05T13:59:27.127Z,100948.38
2022-08-05T14:02:01.926Z,100947.53
2022-08-05T14:04:54.766Z,100946.66
2022-08-05T14:08:01.010Z,100947.09
2022-08-05T14:10:31.053Z,100952.88
2022-08-05T14:13:01.557Z,100935.78
2022-08-05T14:16:05.724Z,100943.28
2022-08-05T14:18:23.337Z,100943.47
2022-08-05T14:20:55.194Z,100932.81
2022-08-05T14:23:28.080Z,100925.38
2022-08-05T14:26:06.791Z,100935.38
2022-08-05T14:28:37.067Z,100930.41
2022-08-05T14:32:03.251Z,100922.25
2022-08-05T14:34:13.489Z,100922.06
2022-08-05T14:36:43.864Z,100929.84
2022-08-05T14:39:23.217Z,100937.16
2022-08-05T14:42:19.684Z,100928.38
2022-08-05T14:44:46.025Z,100942.28
2022-08-05T14:47:16.412Z,100938.56
2022-08-05T14:50:18.192Z,100937.75
2022-08-05T14:52:56.974Z,100932.50
2022-08-05T14:55:39.478Z,100935.19
2022-08-05T14:58:13.698Z,100931.63
2022-08-05T15:00:58.048Z,100926.22
2022-08-05T15:03:34.029Z,100924.19
2022-08-05T15:06:14.806Z,100931.97
2022-08-05T15:08:59.777Z,100923.19
2022-08-05T15:11:51.573Z,100923.66
2022-08-05T15:14:34.562Z,100932.66
2022-08-05T15:17:46.502Z,100926.91
2022-08-05T15:20:00.213Z,100929.94
2022-08-05T15:22:32.086Z,100920.97
2022-08-05T15:25:11.814Z,100927.75
2022-08-05T15:27:52.471Z,100924.19
2022-08-05T15:30:26.438Z,100920.25
2022-08-05T15:32:56.715Z,100933.31
2022-08-05T15:35:28.885Z,100926.06
2022-08-05T15:38:34.338Z,100931.47
2022-08-05T15:41:04.110Z,100919.97
2022-08-05T15:43:48.350Z,100918.06
2022-08-05T15:46:21.165Z,100906.91
2022-08-05T15:49:01.437Z,100922.25
2022-08-05T15:52:13.240Z,100922.25
2022-08-05T15:54:34.571Z,100928.78
2022-08-05T15:57:07.371Z,100926.69
2022-08-05T15:59:38.438Z,100926.00
2022-08-05T16:02:09.558Z,100917.16
2022-08-05T16:04:45.163Z,100917.31
2022-08-05T16:07:16.305Z,100919.06
2022-08-05T16:09:49.383Z,100906.41
2022-08-05T16:12:21.687Z,100908.59
2022-08-05T16:14:51.858Z,100912.78
2022-08-05T16:17:23.359Z,100916.50
2022-08-05T16:20:04.905Z,100909.88
2022-08-05T16:22:36.609Z,100893.56
2022-08-05T16:25:09.779Z,100890.66
2022-08-05T16:28:00.236Z,100890.97
2022-08-05T16:30:34.289Z,100885.22
2022-08-05T16:33:06.488Z,100880.66
2022-08-05T16:35:42.904Z,100881.81
2022-08-05T16:38:24.095Z,100874.78
2022-08-05T16:41:00.058Z,100873.06
2022-08-05T16:43:33.209Z,100871.31
2022-08-05T16:46:24.354Z,100866.88
2022-08-05T16:48:55.657Z,100871.38
2022-08-05T16:51:30.738Z,100851.53
2022-08-05T16:54:17.144Z,100855.53
2022-08-05T16:56:51.897Z,100862.69
2022-08-05T16:59:22.644Z,100853.50
2022-08-05T17:01:55.879Z,100858.19
2022-08-05T17:04:28.325Z,100853.88
2022-08-05T17:07:03.501Z,100858.22
2022-08-05T17:09:57.794Z,100866.03
2022-08-05T17:12:51.158Z,100860.38
2022-08-05T17:15:20.202Z,100868.22
2022-08-05T17:17:55.210Z,100869.81
2022-08-05T17:20:26.600Z,100880.91
2022-08-05T17:22:57.707Z,100877.34
2022-08-05T17:25:33.786Z,100886.34
2022-08-05T17:28:04.955Z,100895.28
2022-08-05T17:30:35.192Z,100895.13
2022-08-05T17:33:21.561Z,100897.66
2022-08-05T17:36:09.991Z,100886.16
2022-08-05T17:38:43.571Z,100882.28
2022-08-05T17:41:22.800Z,100900.91
2022-08-05T17:44:04.456Z,100898.53
2022-08-05T17:46:35.412Z,100910.66
2022-08-05T17:49:05.716Z,100908.13
2022-08-05T17:51:40.307Z,100917.22
2022-08-05T17:54:10.981Z,100920.09
2022-08-05T17:56:41.267Z,100910.50
2022-08-05T17:59:14.995Z,100909.81
2022-08-05T18:01:51.465Z,100909.81
2022-08-05T18:04:27.799Z,100910.25
2022-08-05T18:07:00.260Z,100914.63
2022-08-05T18:09:58.805Z,100925.28
2022-08-05T18:12:22.234Z,100920.88
2022-08-05T18:14:54.508Z,100929.88
2022-08-05T18:18:01.166Z,100903.28
2022-08-05T18:20:15.583Z,100910.56
2022-08-05T18:22:54.478Z,100907.88
2022-08-05T18:25:32.795Z,100920.47
2022-08-05T18:28:04.890Z,100912.78
2022-08-05T18:30:35.981Z,100911.75
2022-08-05T18:33:13.496Z,100917.66
2022-08-05T18:36:00.553Z,100909.56
2022-08-05T18:38:36.414Z,100919.72
2022-08-05T18:41:56.736Z,100909.31
2022-08-05T18:44:06.524Z,100924.13
2022-08-05T18:46:38.283Z,100921.22
2022-08-05T18:49:30.746Z,100922.75
2022-08-05T18:52:33.561Z,100931.44
2022-08-05T18:55:10.706Z,100920.53
2022-08-05T18:57:43.360Z,100913.25
2022-08-05T19:00:28.477Z,100927.78
2022-08-05T19:03:03.688Z,100930.00
2022-08-05T19:06:11.364Z,100929.94
2022-08-05T19:08:30.458Z,100967.41
2022-08-05T19:11:04.901Z,100987.44
2022-08-05T19:13:36.723Z,100981.47
2022-08-05T19:16:25.197Z,100976.59
2022-08-05T19:18:59.405Z,100981.91
2022-08-05T19:21:34.565Z,100995.22
2022-08-05T19:24:12.589Z,100998.47
2022-08-05T19:26:54.314Z,101003.84
2022-08-05T19:29:36.451Z,101013.41
2022-08-05T19:32:11.425Z,101017.06
2022-08-05T19:34:42.176Z,101015.38
2022-08-05T19:37:30.002Z,101016.53
2022-08-05T19:40:17.204Z,101019.00
2022-08-05T19:43:00.790Z,101018.94
2022-08-05T19:45:36.900Z,101020.03
2022-08-05T19:48:07.331Z,101017.31
2022-08-05T19:50:45.132Z,101016.88
2022-08-05T19:53:15.325Z,101013.78
2022-08-05T19:56:13.999Z,101012.91
2022-08-05T19:58:53.376Z,101019.41
2022-08-05T20:01:28.189Z,101017.94
2022-08-05T20:03:59.263Z,101021.00
2022-08-05T20:06:29.657Z,101015.97
2022-08-05T20:09:04.762Z,101021.81
2022-08-05T20:11:48.260Z,101005.13
2022-08-05T20:14:27.088Z,101003.34
2022-08-05T20:16:59.313Z,100995.81
2022-08-05T20:19:36.116Z,101026.56
2022-08-05T20:22:06.704Z,101033.88
2022-08-05T20:24:40.091Z,101044.91
2022-08-05T20:27:11.278Z,101056.06
2022-08-05T20:29:42.124Z,101061.28
2022-08-05T20:32:28.055Z,101074.03
2022-08-05T20:34:58.456Z,101080.28
2022-08-05T20:38:06.836Z,101082.09
2022-08-05T20:40:18.984Z,101094.66
2022-08-05T20:42:49.137Z,101102.13
2022-08-05T20:45:21.003Z,101140.44
2022-08-05T20:47:51.293Z,101190.22
2022-08-05T20:50:22.308Z,101184.91
2022-08-05T20:52:52.810Z,101183.53
2022-08-05T20:56:07.223Z,101154.91
2022-08-05T20:58:15.356Z,101161.16
2022-08-05T21:00:51.791Z,101151.38
2022-08-05T21:03:27.167Z,101155.50
2022-08-05T21:06:04.798Z,101137.88
2022-08-05T21:08:55.191Z,101120.31
2022-08-05T21:12:07.185Z,101113.50
2022-08-05T21:14:15.753Z,101102.22
2022-08-05T21:16:46.005Z,101092.09
2022-08-05T21:19:16.339Z,101119.09
2022-08-05T21:21:50.861Z,101134.44
2022-08-05T21:24:21.472Z,101145.25
2022-08-05T21:26:58.497Z,101136.50
2022-08-05T21:29:32.024Z,101179.66
2022-08-05T21:32:03.158Z,101163.59
2022-08-05T21:34:35.680Z,101161.94
2022-08-05T21:37:08.246Z,101168.78
2022-08-05T21:39:40.318Z,101109.53
2022-08-05T21:42:30.802Z,101174.03
2022-08-05T21:45:02.124Z,101177.34
2022-08-05T21:47:54.753Z,101173.13
2022-08-05T21:50:22.757Z,101156.41
2022-08-05T21:52:53.801Z,101168.84
2022-08-05T21:55:43.047Z,101181.88
2022-08-05T21:58:20.418Z,101152.16
2022-08-05T22:01:01.402Z,101154.81
2022-08-05T22:03:48.452Z,101174.53
2022-08-05T22:06:22.367Z,101197.69
2022-08-05T22:08:53.446Z,101209.69
2022-08-05T22:11:34.468Z,101215.28
2022-08-05T22:14:35.613Z,101199.56
2022-08-05T22:16:56.931Z,101219.88
2022-08-05T22:20:00.867Z,101215.59
2022-08-05T22:22:28.202Z,101184.53
2022-08-05T22:25:24.042Z,101178.03
2022-08-05T22:28:12.098Z,101183.84
2022-08-05T22:30:55.554Z,101147.13
2022-08-05T22:33:56.824Z,101139.81
2022-08-05T22:36:19.109Z,101133.53
2022-08-05T22:38:54.211Z,101153.97
2022-08-05T22:42:05.122Z,101174.25
2022-08-05T22:44:14.646Z,101158.38
2022-08-05T22:46:49.320Z,101165.50
2022-08-05T22:50:18.244Z,101158.56
2022-08-05T22:52:22.889Z,101172.47
2022-08-05T22:55:04.460Z,101180.25
2022-08-05T22:57:51.606Z,101174.47
2022-08-05T23:00:23.490Z,101175.66
2022-08-05T23:02:53.941Z,101191.88
2022-08-05T23:05:24.406Z,101206.91
2022-08-05T23:07:54.975Z,101208.56
2022-08-05T23:10:25.790Z,101185.97
2022-08-05T23:12:56.113Z,101216.44
2022-08-05T23:15:29.788Z,101212.94
2022-08-05T23:18:06.187Z,101199.91
2022-08-05T23:20:43.233Z,101203.41
2022-08-05T23:23:13.652Z,101210.53
2022-08-05T23:25:53.250Z,101200.16
2022-08-05T23:28:29.243Z,101212.00
2022-08-05T23:31:16.411Z,101209.81
2022-08-05T23:34:03.078Z,101215.84
2022-08-05T23:36:38.426Z,101190.34
2022-08-05T23:39:09.808Z,101224.19
2022-08-05T23:41:48.431Z,101225.88
2022-08-05T23:44:22.631Z,101231.28
2022-08-05T23:46:56.079Z,101235.63
2022-08-05T23:49:35.856Z,101242.72
2022-08-05T23:52:25.595Z,101251.59
2022-08-05T23:54:58.269Z,101257.59
2022-08-05T23:57:28.678Z,101262.03
